createdAt,value
2018-03-15T00:00:53.197Z,94354
2018-03-15T00:03:26.789Z,94354
2018-03-15T00:05:54.951Z,94345
2018-03-15T00:08:23.741Z,94355
2018-03-15T00:10:51.877Z,94353
2018-03-15T00:13:20.016Z,94340
2018-03-15T00:15:48.163Z,94351
2018-03-15T00:18:16.287Z,94337
2018-03-15T00:20:44.524Z,94342
2018-03-15T00:23:14.912Z,94326
2018-03-15T00:25:43.082Z,94324
2018-03-15T00:28:11.312Z,94320
2018-03-15T00:30:39.460Z,94320
2018-03-15T00:33:07.580Z,94316
2018-03-15T00:35:36.495Z,94312
2018-03-15T00:38:04.639Z,94304
2018-03-15T00:40:32.939Z,94312
2018-03-15T00:43:01.046Z,94303
2018-03-15T00:45:29.165Z,94300
2018-03-15T00:47:57.266Z,94279
2018-03-15T00:50:26.776Z,94281
2018-03-15T00:52:54.934Z,94283
2018-03-15T00:55:23.107Z,94271
2018-03-15T00:57:51.315Z,94263
2018-03-15T01:13:15.041Z,94229
2018-03-15T01:15:43.200Z,94220
2018-03-15T01:18:11.353Z,94215
2018-03-15T01:20:39.498Z,94213
2018-03-15T01:23:07.610Z,94214
2018-03-15T01:25:41.003Z,94204
2018-03-15T01:28:09.096Z,94203
2018-03-15T01:30:37.828Z,94201
2018-03-15T01:33:05.959Z,94200
2018-03-15T01:35:34.866Z,94192
2018-03-15T01:38:03.016Z,94195
2018-03-15T01:40:31.192Z,94192
2018-03-15T01:42:59.342Z,94191
2018-03-15T01:45:27.457Z,94184
2018-03-15T01:47:55.680Z,94185
2018-03-15T01:50:24.344Z,94177
2018-03-15T01:52:52.496Z,94172
2018-03-15T01:55:21.716Z,94180
2018-03-15T01:57:53.756Z,94181
2018-03-15T02:00:21.909Z,94187
2018-03-15T02:02:50.794Z,94172
2018-03-15T02:05:18.933Z,94177
2018-03-15T02:07:47.252Z,94176
2018-03-15T02:10:15.536Z,94169
2018-03-15T02:12:43.852Z,94178
2018-03-15T02:15:11.997Z,94185
2018-03-15T02:17:40.149Z,94178
2018-03-15T02:20:08.265Z,94172
2018-03-15T02:22:40.081Z,94169
2018-03-15T02:25:08.969Z,94170
2018-03-15T02:27:37.123Z,94170
2018-03-15T02:30:05.329Z,94166
2018-03-15T02:32:34.315Z,94182
2018-03-15T02:35:06.790Z,94164
2018-03-15T02:37:35.793Z,94160
2018-03-15T02:40:04.875Z,94157
2018-03-15T02:42:32.998Z,94169
2018-03-15T02:45:01.945Z,94159
2018-03-15T02:47:30.091Z,94159
2018-03-15T02:49:58.277Z,94144
2018-03-15T02:52:26.470Z,94153
2018-03-15T02:54:54.600Z,94161
2018-03-15T02:57:22.718Z,94150
2018-03-15T02:59:50.841Z,94155
2018-03-15T03:02:18.978Z,94154
2018-03-15T03:04:47.138Z,94150
2018-03-15T03:07:15.276Z,94155
2018-03-15T03:09:43.510Z,94150
2018-03-15T03:12:11.660Z,94148
2018-03-15T03:14:39.804Z,94139
2018-03-15T03:17:07.929Z,94145
2018-03-15T03:19:36.799Z,94142
2018-03-15T03:22:04.965Z,94151
2018-03-15T03:24:33.204Z,94140
2018-03-15T03:27:01.957Z,94145
2018-03-15T03:29:30.113Z,94148
2018-03-15T03:31:58.290Z,94142
2018-03-15T03:34:26.565Z,94153
2018-03-15T03:36:54.801Z,94138
2018-03-15T03:39:30.915Z,94126
2018-03-15T03:41:59.034Z,94135
2018-03-15T03:44:27.235Z,94121
2018-03-15T03:46:55.451Z,94117
2018-03-15T03:49:23.557Z,94102
2018-03-15T03:51:51.834Z,94114
2018-03-15T03:54:19.982Z,94123
2018-03-15T03:56:48.093Z,94108
2018-03-15T03:59:16.978Z,94102
2018-03-15T04:01:45.139Z,94097
2018-03-15T04:04:13.347Z,94101
2018-03-15T04:06:42.236Z,94102
2018-03-15T04:09:11.220Z,94106
2018-03-15T04:11:39.324Z,94083
2018-03-15T04:14:07.451Z,94090
2018-03-15T04:16:35.579Z,94096
2018-03-15T04:19:03.772Z,94082
2018-03-15T04:21:32.012Z,94078
2018-03-15T04:24:00.212Z,94091
2018-03-15T04:26:29.154Z,94082
2018-03-15T04:28:57.257Z,94078
2018-03-15T04:31:25.616Z,94086
2018-03-15T04:33:54.218Z,94087
2018-03-15T04:36:22.540Z,94086
2018-03-15T04:38:50.754Z,94083
2018-03-15T04:41:23.226Z,94092
2018-03-15T04:43:51.350Z,94095
2018-03-15T04:46:19.758Z,94083
2018-03-15T04:48:47.870Z,94078
2018-03-15T04:51:15.986Z,94077
2018-03-15T04:53:44.220Z,94082
2018-03-15T04:56:12.425Z,94090
2018-03-15T04:58:40.608Z,94082
2018-03-15T05:01:08.838Z,94073
2018-03-15T05:03:37.045Z,94085
2018-03-15T05:06:05.553Z,94078
2018-03-15T05:08:33.841Z,94073
2018-03-15T05:11:02.825Z,94076
2018-03-15T05:13:31.000Z,94082
2018-03-15T05:25:39.627Z,94060
2018-03-15T05:28:07.853Z,94061
2018-03-15T05:30:36.035Z,94053
2018-03-15T05:33:04.921Z,94049
2018-03-15T05:35:33.011Z,94053
2018-03-15T05:38:01.517Z,94059
2018-03-15T05:40:30.270Z,94073
2018-03-15T05:42:58.372Z,94066
2018-03-15T05:45:26.560Z,94060
2018-03-15T05:47:54.850Z,94051
2018-03-15T05:50:23.068Z,94054
2018-03-15T05:52:52.038Z,94047
2018-03-15T05:55:20.162Z,94036
2018-03-15T05:57:48.286Z,94029
2018-03-15T06:00:17.086Z,94025
2018-03-15T06:02:45.303Z,94026
2018-03-15T06:05:13.412Z,94015
2018-03-15T06:07:42.416Z,94021
2018-03-15T06:10:10.582Z,94021
2018-03-15T06:12:39.428Z,94017
2018-03-15T06:15:08.095Z,94014
2018-03-15T06:17:40.595Z,94004
2018-03-15T06:20:09.486Z,94010
2018-03-15T06:22:37.620Z,93998
2018-03-15T06:25:06.501Z,94000
2018-03-15T06:27:34.685Z,94000
2018-03-15T06:30:02.890Z,94004
2018-03-15T06:32:31.018Z,93997
2018-03-15T06:34:59.125Z,93995
2018-03-15T06:37:27.221Z,93999
2018-03-15T06:39:55.741Z,93995
2018-03-15T06:42:23.997Z,93992
2018-03-15T06:44:52.109Z,93987
2018-03-15T06:47:21.656Z,93984
2018-03-15T06:49:49.767Z,93977
2018-03-15T06:52:18.175Z,93981
2018-03-15T06:54:47.064Z,93976
2018-03-15T06:57:15.239Z,93975
2018-03-15T06:59:43.401Z,93972
2018-03-15T07:02:12.326Z,93958
2018-03-15T07:04:40.439Z,93962
2018-03-15T07:07:08.538Z,93970
2018-03-15T07:09:36.745Z,93974
2018-03-15T07:12:04.936Z,93974
2018-03-15T07:14:33.168Z,93962
2018-03-15T07:17:01.420Z,93962
2018-03-15T07:19:29.644Z,93953
2018-03-15T07:21:57.798Z,93950
2018-03-15T07:24:25.890Z,93948
2018-03-15T07:26:54.738Z,93950
2018-03-15T07:29:22.820Z,93938
2018-03-15T07:31:51.011Z,93937
2018-03-15T07:34:19.229Z,93939
2018-03-15T07:36:47.425Z,93935
2018-03-15T07:39:15.651Z,93944
2018-03-15T07:41:43.879Z,93935
2018-03-15T07:44:12.105Z,93946
2018-03-15T07:46:40.288Z,93954
2018-03-15T07:49:08.401Z,93944
2018-03-15T07:51:36.588Z,93947
2018-03-15T07:54:04.825Z,93936
2018-03-15T07:56:33.765Z,93932
2018-03-15T07:59:01.868Z,93938
2018-03-15T08:01:29.955Z,93941
2018-03-15T08:03:58.043Z,93941
2018-03-15T08:06:26.186Z,93938
2018-03-15T08:08:54.410Z,93940
2018-03-15T08:11:24.765Z,93928
2018-03-15T08:13:52.870Z,93928
2018-03-15T08:16:21.123Z,93908
2018-03-15T08:18:49.236Z,93922
2018-03-15T08:21:17.345Z,93911
2018-03-15T08:23:47.105Z,93901
2018-03-15T08:26:15.317Z,93913
2018-03-15T08:28:43.532Z,93901
2018-03-15T08:31:11.766Z,93904
2018-03-15T08:33:39.880Z,93895
2018-03-15T08:36:07.993Z,93907
2018-03-15T08:38:36.080Z,93911
2018-03-15T08:41:04.978Z,93912
2018-03-15T08:43:33.074Z,93901
2018-03-15T08:46:01.182Z,93898
2018-03-15T08:48:30.070Z,93904
2018-03-15T08:50:58.252Z,93914
2018-03-15T08:53:26.374Z,93908
2018-03-15T08:55:54.526Z,93901
2018-03-15T08:58:22.637Z,93900
2018-03-15T09:00:50.728Z,93888
2018-03-15T09:03:18.829Z,93895
2018-03-15T09:05:46.974Z,93895
2018-03-15T09:08:15.079Z,93892
2018-03-15T09:10:43.191Z,93887
2018-03-15T09:13:11.277Z,93891
2018-03-15T09:15:39.397Z,93891
2018-03-15T09:18:07.511Z,93879
2018-03-15T09:20:35.723Z,93864
2018-03-15T09:23:04.483Z,93867
2018-03-15T09:25:32.597Z,93863
2018-03-15T09:28:00.695Z,93856
2018-03-15T09:30:28.805Z,93854
2018-03-15T09:32:56.923Z,93838
2018-03-15T09:35:26.149Z,93845
2018-03-15T09:37:54.343Z,93837
2018-03-15T09:40:22.477Z,93835
2018-03-15T09:42:50.612Z,93831
2018-03-15T09:45:18.763Z,93824
2018-03-15T09:47:46.908Z,93816
2018-03-15T09:50:15.014Z,93812
2018-03-15T09:52:43.122Z,93811
2018-03-15T09:55:12.061Z,93806
2018-03-15T09:57:40.210Z,93790
2018-03-15T10:00:08.300Z,93795
2018-03-15T10:02:36.954Z,93781
2018-03-15T10:05:05.204Z,93787
2018-03-15T10:07:33.452Z,93773
2018-03-15T10:10:01.656Z,93774
2018-03-15T10:12:29.837Z,93755
2018-03-15T10:14:57.982Z,93769
2018-03-15T10:17:26.127Z,93772
2018-03-15T10:19:54.673Z,93765
2018-03-15T10:22:22.795Z,93755
2018-03-15T10:24:50.915Z,93754
2018-03-15T10:27:19.024Z,93748
2018-03-15T10:29:47.151Z,93752
2018-03-15T10:32:15.578Z,93752
2018-03-15T10:34:43.747Z,93748
2018-03-15T10:37:11.820Z,93745
2018-03-15T10:39:39.947Z,93749
2018-03-15T10:42:08.080Z,93736
2018-03-15T10:44:36.203Z,93744
2018-03-15T10:47:04.377Z,93743
2018-03-15T10:49:32.589Z,93733
2018-03-15T10:52:00.843Z,93728
2018-03-15T10:54:29.181Z,93721
2018-03-15T10:56:57.393Z,93713
2018-03-15T10:59:25.547Z,93711
2018-03-15T11:01:59.777Z,93712
2018-03-15T11:04:34.663Z,93709
2018-03-15T11:07:04.715Z,93723
2018-03-15T11:09:32.943Z,93706
2018-03-15T11:12:01.489Z,93712
2018-03-15T11:14:30.437Z,93704
2018-03-15T11:16:58.568Z,93704
2018-03-15T11:19:26.678Z,93709
2018-03-15T11:21:54.833Z,93714
2018-03-15T11:24:22.978Z,93717
2018-03-15T11:26:51.105Z,93703
2018-03-15T11:29:19.260Z,93699
2018-03-15T11:31:47.402Z,93698
2018-03-15T11:34:15.596Z,93692
2018-03-15T11:36:43.703Z,93684
2018-03-15T11:39:11.912Z,93684
2018-03-15T11:41:40.082Z,93681
2018-03-15T11:44:08.216Z,93681
2018-03-15T11:46:36.324Z,93666
2018-03-15T11:49:04.545Z,93658
2018-03-15T11:51:32.668Z,93663
2018-03-15T11:54:00.837Z,93668
2018-03-15T11:56:29.000Z,93647
2018-03-15T11:58:57.173Z,93637
2018-03-15T12:01:25.433Z,93644
2018-03-15T12:03:53.685Z,93628
2018-03-15T12:06:21.941Z,93626
2018-03-15T12:08:50.111Z,93613
2018-03-15T12:11:18.263Z,93612
2018-03-15T12:13:46.401Z,93615
2018-03-15T12:16:15.098Z,93603
2018-03-15T12:18:43.269Z,93590
2018-03-15T12:21:11.392Z,93592
2018-03-15T12:23:43.479Z,93590
2018-03-15T12:26:11.576Z,93587
2018-03-15T12:28:39.755Z,93600
2018-03-15T12:31:07.901Z,93588
2018-03-15T12:33:36.049Z,93580
2018-03-15T12:36:04.214Z,93574
2018-03-15T12:38:32.354Z,93567
2018-03-15T12:41:00.453Z,93575
2018-03-15T12:43:28.561Z,93562
2018-03-15T12:45:57.470Z,93562
2018-03-15T12:48:25.602Z,93560
2018-03-15T12:50:53.860Z,93554
2018-03-15T12:53:21.965Z,93543
2018-03-15T12:55:50.109Z,93543
2018-03-15T12:58:18.205Z,93529
2018-03-15T13:00:47.378Z,93527
2018-03-15T13:03:15.497Z,93536
2018-03-15T13:05:44.884Z,93533
2018-03-15T13:08:13.005Z,93520
2018-03-15T13:10:41.130Z,93517
2018-03-15T13:13:09.240Z,93518
2018-03-15T13:15:37.348Z,93511
2018-03-15T13:18:06.256Z,93509
2018-03-15T13:20:34.422Z,93511
2018-03-15T13:23:03.810Z,93509
2018-03-15T13:25:31.929Z,93490
2018-03-15T13:28:00.183Z,93495
2018-03-15T13:30:28.320Z,93493
2018-03-15T13:32:56.484Z,93488
2018-03-15T13:35:24.662Z,93479
2018-03-15T13:37:52.910Z,93478
2018-03-15T13:40:21.189Z,93477
2018-03-15T13:42:49.378Z,93475
2018-03-15T13:45:17.526Z,93486
2018-03-15T13:47:45.637Z,93487
2018-03-15T13:50:13.841Z,93484
2018-03-15T13:52:42.717Z,93488
2018-03-15T13:55:10.820Z,93482
2018-03-15T13:57:38.928Z,93478
2018-03-15T14:00:07.053Z,93479
2018-03-15T14:02:35.193Z,93468
2018-03-15T14:05:04.955Z,93471
2018-03-15T14:07:33.074Z,93457
2018-03-15T14:10:01.166Z,93463
2018-03-15T14:12:29.369Z,93453
2018-03-15T14:14:57.593Z,93456
2018-03-15T14:17:25.908Z,93457
2018-03-15T14:19:54.857Z,93449
2018-03-15T14:22:22.972Z,93445
2018-03-15T14:24:51.100Z,93447
2018-03-15T14:27:19.196Z,93444
2018-03-15T14:29:47.342Z,93447
2018-03-15T14:32:15.471Z,93439
2018-03-15T14:34:43.608Z,93436
2018-03-15T14:37:11.744Z,93433
2018-03-15T14:39:39.872Z,93432
2018-03-15T14:42:08.002Z,93439
2018-03-15T14:44:43.235Z,93428
2018-03-15T14:47:11.874Z,93440
2018-03-15T14:49:39.994Z,93431
2018-03-15T14:52:08.247Z,93433
2018-03-15T14:54:46.085Z,93436
2018-03-15T14:57:27.505Z,93429
2018-03-15T15:00:10.751Z,93429
2018-03-15T15:02:50.898Z,93436
2018-03-15T15:05:27.714Z,93437
2018-03-15T15:08:07.669Z,93422
2018-03-15T15:10:36.262Z,93442
2018-03-15T15:13:04.407Z,93423
2018-03-15T15:15:32.595Z,93429
2018-03-15T15:18:00.717Z,93438
2018-03-15T15:20:28.865Z,93431
2018-03-15T15:22:57.037Z,93427
2018-03-15T15:25:25.283Z,93435
2018-03-15T15:27:53.391Z,93435
2018-03-15T15:30:22.254Z,93435
2018-03-15T15:32:50.352Z,93433
2018-03-15T15:35:18.519Z,93437
2018-03-15T15:37:46.624Z,93427
2018-03-15T15:40:14.961Z,93439
2018-03-15T15:42:43.126Z,93434
2018-03-15T15:45:11.572Z,93432
2018-03-15T15:47:39.877Z,93441
2018-03-15T15:50:08.012Z,93445
2018-03-15T15:52:36.194Z,93435
2018-03-15T15:55:04.334Z,93431
2018-03-15T15:57:32.506Z,93433
2018-03-15T16:00:00.600Z,93439
2018-03-15T16:02:28.726Z,93444
2018-03-15T16:04:56.846Z,93436
2018-03-15T16:07:24.946Z,93443
2018-03-15T16:09:53.094Z,93435
2018-03-15T16:12:21.353Z,93433
2018-03-15T16:14:49.624Z,93438
2018-03-15T16:17:18.631Z,93432
2018-03-15T16:19:46.786Z,93450
2018-03-15T16:22:15.678Z,93442
2018-03-15T16:24:43.778Z,93438
2018-03-15T16:27:12.594Z,93440
2018-03-15T16:29:40.759Z,93436
2018-03-15T16:32:08.953Z,93447
2018-03-15T16:34:37.436Z,93443
2018-03-15T16:37:05.610Z,93443
2018-03-15T16:39:33.805Z,93447
2018-03-15T16:42:02.421Z,93450
2018-03-15T16:44:30.712Z,93445
2018-03-15T16:46:58.835Z,93432
2018-03-15T16:49:27.055Z,93438
2018-03-15T16:51:55.163Z,93433
2018-03-15T16:54:23.284Z,93444
2018-03-15T16:56:51.726Z,93432
2018-03-15T16:59:19.968Z,93435
2018-03-15T17:01:48.151Z,93436
2018-03-15T17:04:16.313Z,93439
2018-03-15T17:06:45.227Z,93437
2018-03-15T17:09:13.671Z,93443
2018-03-15T17:11:41.906Z,93446
2018-03-15T17:14:10.125Z,93428
2018-03-15T17:16:38.311Z,93435
2018-03-15T17:19:06.425Z,93430
2018-03-15T17:21:34.520Z,93441
2018-03-15T17:24:02.639Z,93450
2018-03-15T17:26:30.948Z,93439
2018-03-15T17:28:59.082Z,93441
2018-03-15T17:31:27.205Z,93441
2018-03-15T17:33:56.957Z,93447
2018-03-15T17:36:25.236Z,93443
2018-03-15T17:38:53.787Z,93442
2018-03-15T17:41:22.117Z,93446
2018-03-15T17:43:50.284Z,93440
2018-03-15T17:46:18.560Z,93441
2018-03-15T17:48:46.820Z,93434
2018-03-15T17:51:15.017Z,93434
2018-03-15T17:53:43.370Z,93433
2018-03-15T17:56:11.549Z,93432
2018-03-15T17:58:39.731Z,93422
2018-03-15T18:01:08.625Z,93422
2018-03-15T18:03:36.745Z,93413
2018-03-15T18:06:04.873Z,93417
2018-03-15T18:08:32.993Z,93418
2018-03-15T18:11:01.955Z,93403
2018-03-15T18:13:30.181Z,93403
2018-03-15T18:15:58.350Z,93387
2018-03-15T18:18:26.452Z,93392
2018-03-15T18:20:54.878Z,93392
2018-03-15T18:23:22.991Z,93388
2018-03-15T18:25:51.096Z,93392
2018-03-15T18:28:19.208Z,93397
2018-03-15T18:30:48.058Z,93399
2018-03-15T18:33:16.234Z,93401
2018-03-15T18:35:44.385Z,93399
2018-03-15T18:38:12.885Z,93415
2018-03-15T18:40:42.184Z,93418
2018-03-15T18:43:14.958Z,93424
2018-03-15T18:45:43.490Z,93437
2018-03-15T18:48:11.930Z,93439
2018-03-15T18:50:40.106Z,93443
2018-03-15T18:53:08.208Z,93444
2018-03-15T18:55:39.668Z,93434
2018-03-15T18:58:08.654Z,93436
2018-03-15T19:00:36.884Z,93440
2018-03-15T19:03:06.127Z,93449
2018-03-15T19:05:35.196Z,93439
2018-03-15T19:08:03.311Z,93439
2018-03-15T19:10:31.467Z,93428
2018-03-15T19:12:59.602Z,93431
2018-03-15T19:15:27.717Z,93412
2018-03-15T19:17:55.864Z,93426
2018-03-15T19:20:23.969Z,93443
2018-03-15T19:22:52.076Z,93434
2018-03-15T19:25:20.181Z,93447
2018-03-15T19:27:48.291Z,93452
2018-03-15T19:30:16.404Z,93442
2018-03-15T19:32:44.522Z,93439
2018-03-15T19:35:13.240Z,93440
2018-03-15T19:37:41.345Z,93435
2018-03-15T19:40:09.448Z,93439
2018-03-15T19:42:38.377Z,93430
2018-03-15T19:45:06.505Z,93428
2018-03-15T19:47:34.622Z,93426
2018-03-15T19:50:02.730Z,93422
2018-03-15T19:52:30.853Z,93442
2018-03-15T19:54:58.980Z,93446
2018-03-15T19:57:27.114Z,93443
2018-03-15T19:59:55.215Z,93450
2018-03-15T20:02:24.045Z,93457
2018-03-15T20:04:52.238Z,93463
2018-03-15T20:07:20.400Z,93459
2018-03-15T20:09:48.596Z,93466
2018-03-15T20:12:16.698Z,93472
2018-03-15T20:14:44.818Z,93472
2018-03-15T20:17:12.992Z,93474
2018-03-15T20:19:41.703Z,93482
2018-03-15T20:22:09.873Z,93483
2018-03-15T20:24:38.024Z,93483
2018-03-15T20:27:06.939Z,93494
2018-03-15T20:29:35.040Z,93500
2018-03-15T20:32:03.186Z,93496
2018-03-15T20:34:31.295Z,93492
2018-03-15T20:36:59.442Z,93501
2018-03-15T20:39:33.101Z,93496
2018-03-15T20:42:01.308Z,93515
2018-03-15T20:44:30.137Z,93522
2018-03-15T20:47:03.806Z,93530
2018-03-15T20:49:31.915Z,93534
2018-03-15T20:52:00.039Z,93542
2018-03-15T20:54:28.739Z,93546
2018-03-15T20:56:56.881Z,93552
2018-03-15T20:59:25.045Z,93563
2018-03-15T21:01:53.252Z,93560
2018-03-15T21:04:21.392Z,93571
2018-03-15T21:06:49.495Z,93566
2018-03-15T21:09:17.630Z,93571
2018-03-15T21:11:46.536Z,93570
2018-03-15T21:14:14.661Z,93571
2018-03-15T21:16:43.026Z,93574
2018-03-15T21:19:11.158Z,93577
2018-03-15T21:21:39.275Z,93581
2018-03-15T21:24:07.429Z,93588
2018-03-15T21:26:35.562Z,93583
2018-03-15T21:29:03.656Z,93593
2018-03-15T21:31:31.797Z,93597
2018-03-15T21:33:59.956Z,93594
2018-03-15T21:36:28.097Z,93594
2018-03-15T21:38:56.274Z,93599
2018-03-15T21:41:24.399Z,93597
2018-03-15T21:43:52.527Z,93603
2018-03-15T21:46:20.668Z,93607
2018-03-15T21:48:48.850Z,93607
2018-03-15T21:51:17.067Z,93615
2018-03-15T21:53:45.208Z,93614
2018-03-15T21:56:13.312Z,93622
2018-03-15T21:58:41.435Z,93624
2018-03-15T22:01:10.253Z,93633
2018-03-15T22:03:38.365Z,93635
2018-03-15T22:06:06.491Z,93642
2018-03-15T22:08:34.621Z,93631
2018-03-15T22:11:03.493Z,93639
2018-03-15T22:13:31.631Z,93641
2018-03-15T22:15:59.745Z,93640
2018-03-15T22:18:27.873Z,93644
2018-03-15T22:20:56.073Z,93649
2018-03-15T22:23:24.185Z,93660
2018-03-15T22:25:52.295Z,93665
2018-03-15T22:28:20.413Z,93665
2018-03-15T22:30:48.542Z,93659
2018-03-15T22:33:16.645Z,93666
2018-03-15T22:35:44.773Z,93669
2018-03-15T22:38:12.890Z,93670
2018-03-15T22:40:41.016Z,93676
2018-03-15T22:43:09.123Z,93670
2018-03-15T22:45:37.250Z,93682
2018-03-15T22:48:05.414Z,93674
2018-03-15T22:50:34.279Z,93672
2018-03-15T22:53:02.418Z,93684
2018-03-15T22:55:30.522Z,93690
2018-03-15T22:57:58.637Z,93687
2018-03-15T23:00:26.778Z,93682
2018-03-15T23:02:54.894Z,93695
2018-03-15T23:05:23.000Z,93701
2018-03-15T23:07:51.109Z,93701
2018-03-15T23:10:19.312Z,93715
2018-03-15T23:12:47.403Z,93714
2018-03-15T23:15:15.568Z,93708
2018-03-15T23:17:44.293Z,93712
2018-03-15T23:20:13.250Z,93719
2018-03-15T23:22:41.365Z,93711
2018-03-15T23:25:09.477Z,93717
2018-03-15T23:27:37.624Z,93726
2018-03-15T23:30:05.800Z,93728
2018-03-15T23:32:33.932Z,93729
2018-03-15T23:35:02.024Z,93730
2018-03-15T23:37:30.204Z,93736
2018-03-15T23:39:58.325Z,93740
2018-03-15T23:42:26.449Z,93740
2018-03-15T23:44:54.589Z,93748
2018-03-15T23:47:22.685Z,93749
2018-03-15T23:49:50.824Z,93749
2018-03-15T23:52:18.901Z,93752
2018-03-15T23:54:47.035Z,93753
2018-03-15T23:57:15.153Z,93754
2018-03-15T23:59:43.381Z,93753
